sensor_id;sensor_type;location;lat;lon;timestamp;P1;durP1;ratioP1;P2;durP2;ratioP2
6821;SDS011;3449;48.728;8.968;2024-03-29T00:01:21;1.03;;;1.00;;
6821;SDS011;3449;48.728;8.968;2024-03-29T00:03:47;4.20;;;1.50;;
6821;SDS011;3449;48.728;8.968;2024-03-29T00:06:12;0.57;;;0.57;;
6821;SDS011;3449;48.728;8.968;2024-03-29T00:08:38;2.00;;;1.00;;
6821;SDS011;3449;48.728;8.968;2024-03-29T00:11:04;2.10;;;0.80;;
6821;SDS011;3449;48.728;8.968;2024-03-29T00:13:32;1.10;;;0.83;;
6821;SDS011;3449;48.728;8.968;2024-03-29T00:15:57;1.53;;;0.90;;
6821;SDS011;3449;48.728;8.968;2024-03-29T00:18:23;0.57;;;0.50;;
6821;SDS011;3449;48.728;8.968;2024-03-29T00:20:49;3.90;;;0.80;;
6821;SDS011;3449;48.728;8.968;2024-03-29T00:23:15;2.20;;;0.77;;
6821;SDS011;3449;48.728;8.968;2024-03-29T00:25:41;3.73;;;0.80;;
6821;SDS011;3449;48.728;8.968;2024-03-29T00:28:07;1.57;;;0.80;;
6821;SDS011;3449;48.728;8.968;2024-03-29T00:30:34;1.27;;;0.93;;
6821;SDS011;3449;48.728;8.968;2024-03-29T00:33:00;1.10;;;1.00;;
6821;SDS011;3449;48.728;8.968;2024-03-29T00:35:26;1.03;;;0.60;;
6821;SDS011;3449;48.728;8.968;2024-03-29T00:37:52;2.67;;;1.20;;
6821;SDS011;3449;48.728;8.968;2024-03-29T00:40:18;1.57;;;0.60;;
6821;SDS011;3449;48.728;8.968;2024-03-29T00:42:44;0.70;;;0.60;;
6821;SDS011;3449;48.728;8.968;2024-03-29T00:45:09;1.93;;;0.80;;
6821;SDS011;3449;48.728;8.968;2024-03-29T00:47:37;1.10;;;1.00;;
6821;SDS011;3449;48.728;8.968;2024-03-29T00:50:03;2.70;;;0.90;;
6821;SDS011;3449;48.728;8.968;2024-03-29T00:52:29;2.40;;;0.70;;
6821;SDS011;3449;48.728;8.968;2024-03-29T00:54:55;1.53;;;0.77;;
6821;SDS011;3449;48.728;8.968;2024-03-29T00:57:21;1.53;;;0.80;;
6821;SDS011;3449;48.728;8.968;2024-03-29T00:59:47;1.03;;;0.90;;
6821;SDS011;3449;48.728;8.968;2024-03-29T01:02:13;0.80;;;0.80;;
6821;SDS011;3449;48.728;8.968;2024-03-29T01:04:40;1.20;;;1.10;;
6821;SDS011;3449;48.728;8.968;2024-03-29T01:07:06;1.40;;;1.30;;
6821;SDS011;3449;48.728;8.968;2024-03-29T01:09:32;4.37;;;1.00;;
6821;SDS011;3449;48.728;8.968;2024-03-29T01:11:58;1.23;;;0.73;;
6821;SDS011;3449;48.728;8.968;2024-03-29T01:14:24;0.87;;;0.80;;
6821;SDS011;3449;48.728;8.968;2024-03-29T01:16:50;0.70;;;0.53;;
6821;SDS011;3449;48.728;8.968;2024-03-29T01:19:16;0.97;;;0.77;;
6821;SDS011;3449;48.728;8.968;2024-03-29T01:21:43;1.70;;;0.87;;
6821;SDS011;3449;48.728;8.968;2024-03-29T01:24:09;1.20;;;1.10;;
6821;SDS011;3449;48.728;8.968;2024-03-29T01:26:35;1.33;;;0.97;;
6821;SDS011;3449;48.728;8.968;2024-03-29T01:29:00;0.83;;;0.67;;
6821;SDS011;3449;48.728;8.968;2024-03-29T01:31:26;1.20;;;0.97;;
6821;SDS011;3449;48.728;8.968;2024-03-29T01:33:52;1.30;;;1.20;;
6821;SDS011;3449;48.728;8.968;2024-03-29T01:36:18;0.70;;;0.60;;
6821;SDS011;3449;48.728;8.968;2024-03-29T01:38:45;1.60;;;0.90;;
6821;SDS011;3449;48.728;8.968;2024-03-29T01:41:11;0.60;;;0.60;;
6821;SDS011;3449;48.728;8.968;2024-03-29T01:43:37;2.20;;;0.90;;
6821;SDS011;3449;48.728;8.968;2024-03-29T01:46:04;1.33;;;1.13;;
6821;SDS011;3449;48.728;8.968;2024-03-29T01:48:33;3.60;;;0.80;;
6821;SDS011;3449;48.728;8.968;2024-03-29T01:51:00;1.00;;;0.87;;
6821;SDS011;3449;48.728;8.968;2024-03-29T01:53:28;1.53;;;0.90;;
6821;SDS011;3449;48.728;8.968;2024-03-29T01:55:57;2.13;;;0.93;;
6821;SDS011;3449;48.728;8.968;2024-03-29T01:58:25;2.83;;;1.10;;
6821;SDS011;3449;48.728;8.968;2024-03-29T02:00:52;3.23;;;1.10;;
6821;SDS011;3449;48.728;8.968;2024-03-29T02:03:20;1.90;;;1.30;;
6821;SDS011;3449;48.728;8.968;2024-03-29T02:05:47;1.33;;;0.90;;
6821;SDS011;3449;48.728;8.968;2024-03-29T02:08:15;0.70;;;0.70;;
6821;SDS011;3449;48.728;8.968;2024-03-29T02:10:43;1.00;;;0.97;;
6821;SDS011;3449;48.728;8.968;2024-03-29T02:13:13;1.17;;;0.90;;
6821;SDS011;3449;48.728;8.968;2024-03-29T02:15:40;0.90;;;0.70;;
6821;SDS011;3449;48.728;8.968;2024-03-29T02:18:07;1.80;;;1.10;;
6821;SDS011;3449;48.728;8.968;2024-03-29T02:20:34;1.00;;;0.63;;
6821;SDS011;3449;48.728;8.968;2024-03-29T02:23:04;1.60;;;0.93;;
6821;SDS011;3449;48.728;8.968;2024-03-29T02:25:36;1.73;;;1.30;;
6821;SDS011;3449;48.728;8.968;2024-03-29T02:28:04;1.53;;;0.90;;
6821;SDS011;3449;48.728;8.968;2024-03-29T02:30:31;1.87;;;1.30;;
6821;SDS011;3449;48.728;8.968;2024-03-29T02:32:58;0.93;;;0.77;;
6821;SDS011;3449;48.728;8.968;2024-03-29T02:35:25;2.83;;;1.40;;
6821;SDS011;3449;48.728;8.968;2024-03-29T02:37:52;2.00;;;1.30;;
6821;SDS011;3449;48.728;8.968;2024-03-29T02:40:19;1.60;;;1.00;;
6821;SDS011;3449;48.728;8.968;2024-03-29T02:42:48;1.80;;;1.27;;
6821;SDS011;3449;48.728;8.968;2024-03-29T02:45:15;1.20;;;1.10;;
6821;SDS011;3449;48.728;8.968;2024-03-29T02:47:42;1.40;;;1.23;;
6821;SDS011;3449;48.728;8.968;2024-03-29T02:50:09;2.53;;;1.50;;
6821;SDS011;3449;48.728;8.968;2024-03-29T02:52:37;2.03;;;1.30;;
6821;SDS011;3449;48.728;8.968;2024-03-29T02:55:03;2.00;;;1.30;;
6821;SDS011;3449;48.728;8.968;2024-03-29T02:57:30;1.00;;;0.90;;
6821;SDS011;3449;48.728;8.968;2024-03-29T02:59:57;1.90;;;1.70;;
6821;SDS011;3449;48.728;8.968;2024-03-29T03:02:24;2.83;;;1.10;;
6821;SDS011;3449;48.728;8.968;2024-03-29T03:04:50;1.40;;;1.30;;
6821;SDS011;3449;48.728;8.968;2024-03-29T03:07:17;4.67;;;1.93;;
6821;SDS011;3449;48.728;8.968;2024-03-29T03:10:01;1.57;;;1.10;;
6821;SDS011;3449;48.728;8.968;2024-03-29T03:12:45;1.43;;;1.33;;
6821;SDS011;3449;48.728;8.968;2024-03-29T03:15:13;1.20;;;1.00;;
6821;SDS011;3449;48.728;8.968;2024-03-29T03:17:40;0.93;;;0.90;;
6821;SDS011;3449;48.728;8.968;2024-03-29T03:20:07;1.83;;;1.13;;
6821;SDS011;3449;48.728;8.968;2024-03-29T03:22:34;1.10;;;0.87;;
6821;SDS011;3449;48.728;8.968;2024-03-29T03:25:00;4.53;;;1.00;;
6821;SDS011;3449;48.728;8.968;2024-03-29T03:27:27;1.10;;;1.00;;
6821;SDS011;3449;48.728;8.968;2024-03-29T03:29:53;0.77;;;0.77;;
6821;SDS011;3449;48.728;8.968;2024-03-29T03:32:21;1.43;;;0.90;;
6821;SDS011;3449;48.728;8.968;2024-03-29T03:34:47;1.97;;;1.00;;
6821;SDS011;3449;48.728;8.968;2024-03-29T03:37:13;0.90;;;0.80;;
6821;SDS011;3449;48.728;8.968;2024-03-29T03:39:39;1.00;;;0.90;;
6821;SDS011;3449;48.728;8.968;2024-03-29T03:42:06;1.90;;;1.20;;
6821;SDS011;3449;48.728;8.968;2024-03-29T03:44:32;3.80;;;1.17;;
6821;SDS011;3449;48.728;8.968;2024-03-29T03:46:59;2.20;;;1.03;;
6821;SDS011;3449;48.728;8.968;2024-03-29T03:49:26;1.47;;;0.80;;
6821;SDS011;3449;48.728;8.968;2024-03-29T03:51:53;5.43;;;1.00;;
6821;SDS011;3449;48.728;8.968;2024-03-29T03:54:19;1.03;;;0.80;;
6821;SDS011;3449;48.728;8.968;2024-03-29T03:56:46;1.10;;;1.00;;
6821;SDS011;3449;48.728;8.968;2024-03-29T03:59:14;1.10;;;1.00;;
6821;SDS011;3449;48.728;8.968;2024-03-29T04:01:40;1.60;;;1.17;;
6821;SDS011;3449;48.728;8.968;2024-03-29T04:04:06;2.87;;;1.60;;
6821;SDS011;3449;48.728;8.968;2024-03-29T04:06:34;0.80;;;0.73;;
6821;SDS011;3449;48.728;8.968;2024-03-29T04:09:00;0.80;;;0.80;;
6821;SDS011;3449;48.728;8.968;2024-03-29T04:11:27;2.53;;;1.80;;
6821;SDS011;3449;48.728;8.968;2024-03-29T04:13:54;5.90;;;2.43;;
6821;SDS011;3449;48.728;8.968;2024-03-29T04:16:20;1.70;;;1.20;;
6821;SDS011;3449;48.728;8.968;2024-03-29T04:18:46;1.07;;;0.97;;
6821;SDS011;3449;48.728;8.968;2024-03-29T04:21:13;0.90;;;0.50;;
6821;SDS011;3449;48.728;8.968;2024-03-29T04:23:40;1.37;;;0.80;;
6821;SDS011;3449;48.728;8.968;2024-03-29T04:26:07;2.23;;;0.87;;
6821;SDS011;3449;48.728;8.968;2024-03-29T04:28:33;1.67;;;0.90;;
6821;SDS011;3449;48.728;8.968;2024-03-29T04:31:00;1.10;;;0.70;;
6821;SDS011;3449;48.728;8.968;2024-03-29T04:33:26;5.03;;;1.13;;
6821;SDS011;3449;48.728;8.968;2024-03-29T04:35:53;1.10;;;1.00;;
6821;SDS011;3449;48.728;8.968;2024-03-29T04:38:21;2.63;;;1.00;;
6821;SDS011;3449;48.728;8.968;2024-03-29T04:40:50;0.80;;;0.80;;
6821;SDS011;3449;48.728;8.968;2024-03-29T04:43:17;1.63;;;0.90;;
6821;SDS011;3449;48.728;8.968;2024-03-29T04:45:44;2.70;;;0.80;;
6821;SDS011;3449;48.728;8.968;2024-03-29T04:48:11;6.30;;;0.97;;
6821;SDS011;3449;48.728;8.968;2024-03-29T04:50:38;4.40;;;1.90;;
6821;SDS011;3449;48.728;8.968;2024-03-29T04:53:05;6.00;;;2.40;;
6821;SDS011;3449;48.728;8.968;2024-03-29T04:55:33;5.50;;;2.80;;
6821;SDS011;3449;48.728;8.968;2024-03-29T04:58:01;9.57;;;2.97;;
6821;SDS011;3449;48.728;8.968;2024-03-29T05:00:28;7.47;;;2.83;;
6821;SDS011;3449;48.728;8.968;2024-03-29T05:02:55;2.60;;;1.50;;
6821;SDS011;3449;48.728;8.968;2024-03-29T05:05:22;1.17;;;0.83;;
6821;SDS011;3449;48.728;8.968;2024-03-29T05:07:49;1.83;;;1.20;;
6821;SDS011;3449;48.728;8.968;2024-03-29T05:10:15;4.93;;;2.60;;
6821;SDS011;3449;48.728;8.968;2024-03-29T05:12:43;1.27;;;1.00;;
6821;SDS011;3449;48.728;8.968;2024-03-29T05:15:11;3.00;;;0.90;;
6821;SDS011;3449;48.728;8.968;2024-03-29T05:17:39;3.37;;;1.00;;
6821;SDS011;3449;48.728;8.968;2024-03-29T05:20:07;1.10;;;1.00;;
6821;SDS011;3449;48.728;8.968;2024-03-29T05:22:35;0.80;;;0.80;;
6821;SDS011;3449;48.728;8.968;2024-03-29T05:25:01;1.77;;;1.10;;
6821;SDS011;3449;48.728;8.968;2024-03-29T05:27:29;1.20;;;0.63;;
6821;SDS011;3449;48.728;8.968;2024-03-29T05:29:56;2.30;;;0.90;;
6821;SDS011;3449;48.728;8.968;2024-03-29T05:32:24;0.70;;;0.70;;
6821;SDS011;3449;48.728;8.968;2024-03-29T05:34:51;0.73;;;0.73;;
6821;SDS011;3449;48.728;8.968;2024-03-29T05:37:18;1.33;;;0.93;;
6821;SDS011;3449;48.728;8.968;2024-03-29T05:39:44;4.77;;;0.90;;
6821;SDS011;3449;48.728;8.968;2024-03-29T05:42:12;0.67;;;0.60;;
6821;SDS011;3449;48.728;8.968;2024-03-29T05:44:39;1.30;;;0.83;;
6821;SDS011;3449;48.728;8.968;2024-03-29T05:47:06;0.70;;;0.70;;
6821;SDS011;3449;48.728;8.968;2024-03-29T05:49:34;1.00;;;0.80;;
6821;SDS011;3449;48.728;8.968;2024-03-29T05:52:01;1.60;;;0.80;;
6821;SDS011;3449;48.728;8.968;2024-03-29T05:54:28;1.77;;;0.90;;
6821;SDS011;3449;48.728;8.968;2024-03-29T05:56:54;1.17;;;0.97;;
6821;SDS011;3449;48.728;8.968;2024-03-29T05:59:21;1.67;;;0.70;;
6821;SDS011;3449;48.728;8.968;2024-03-29T06:01:48;0.90;;;0.90;;
6821;SDS011;3449;48.728;8.968;2024-03-29T06:04:15;0.90;;;0.87;;
6821;SDS011;3449;48.728;8.968;2024-03-29T06:06:45;3.03;;;1.33;;
6821;SDS011;3449;48.728;8.968;2024-03-29T06:09:12;1.70;;;1.00;;
6821;SDS011;3449;48.728;8.968;2024-03-29T06:11:41;1.70;;;1.10;;
6821;SDS011;3449;48.728;8.968;2024-03-29T06:14:09;11.03;;;1.10;;
6821;SDS011;3449;48.728;8.968;2024-03-29T06:16:54;1.00;;;1.00;;
6821;SDS011;3449;48.728;8.968;2024-03-29T06:19:38;1.23;;;1.00;;
6821;SDS011;3449;48.728;8.968;2024-03-29T06:22:07;4.63;;;1.33;;
6821;SDS011;3449;48.728;8.968;2024-03-29T06:24:34;1.53;;;1.17;;
6821;SDS011;3449;48.728;8.968;2024-03-29T06:27:01;1.97;;;1.37;;
6821;SDS011;3449;48.728;8.968;2024-03-29T06:29:28;1.40;;;0.90;;
6821;SDS011;3449;48.728;8.968;2024-03-29T06:31:55;2.80;;;1.10;;
6821;SDS011;3449;48.728;8.968;2024-03-29T06:34:22;1.60;;;0.83;;
6821;SDS011;3449;48.728;8.968;2024-03-29T06:36:48;1.23;;;0.90;;
6821;SDS011;3449;48.728;8.968;2024-03-29T06:39:17;1.70;;;1.03;;
6821;SDS011;3449;48.728;8.968;2024-03-29T06:41:45;2.00;;;1.03;;
6821;SDS011;3449;48.728;8.968;2024-03-29T06:44:11;0.93;;;0.83;;
6821;SDS011;3449;48.728;8.968;2024-03-29T06:46:38;0.97;;;0.97;;
6821;SDS011;3449;48.728;8.968;2024-03-29T06:49:05;0.97;;;0.90;;
6821;SDS011;3449;48.728;8.968;2024-03-29T06:51:32;0.90;;;0.90;;
6821;SDS011;3449;48.728;8.968;2024-03-29T06:53:59;0.93;;;0.77;;
6821;SDS011;3449;48.728;8.968;2024-03-29T06:56:27;0.80;;;0.80;;
6821;SDS011;3449;48.728;8.968;2024-03-29T06:58:55;1.73;;;1.30;;
6821;SDS011;3449;48.728;8.968;2024-03-29T07:01:21;2.20;;;1.50;;
6821;SDS011;3449;48.728;8.968;2024-03-29T07:03:48;2.40;;;1.23;;
6821;SDS011;3449;48.728;8.968;2024-03-29T07:06:15;2.43;;;0.73;;
6821;SDS011;3449;48.728;8.968;2024-03-29T07:08:42;3.03;;;1.20;;
6821;SDS011;3449;48.728;8.968;2024-03-29T07:11:09;1.17;;;0.97;;
6821;SDS011;3449;48.728;8.968;2024-03-29T07:13:37;0.93;;;0.90;;
6821;SDS011;3449;48.728;8.968;2024-03-29T07:16:04;0.70;;;0.70;;
6821;SDS011;3449;48.728;8.968;2024-03-29T07:18:32;2.20;;;1.20;;
6821;SDS011;3449;48.728;8.968;2024-03-29T07:20:59;0.80;;;0.80;;
6821;SDS011;3449;48.728;8.968;2024-03-29T07:23:26;1.13;;;1.03;;
6821;SDS011;3449;48.728;8.968;2024-03-29T07:26:00;1.10;;;1.00;;
6821;SDS011;3449;48.728;8.968;2024-03-29T07:28:28;1.00;;;0.90;;
6821;SDS011;3449;48.728;8.968;2024-03-29T07:30:57;4.83;;;3.13;;
6821;SDS011;3449;48.728;8.968;2024-03-29T07:33:31;4.30;;;1.80;;
6821;SDS011;3449;48.728;8.968;2024-03-29T07:35:58;3.90;;;3.37;;
6821;SDS011;3449;48.728;8.968;2024-03-29T07:38:25;5.27;;;2.10;;
6821;SDS011;3449;48.728;8.968;2024-03-29T07:40:52;5.53;;;1.90;;
6821;SDS011;3449;48.728;8.968;2024-03-29T07:43:20;5.57;;;2.70;;
6821;SDS011;3449;48.728;8.968;2024-03-29T07:45:47;5.80;;;3.57;;
6821;SDS011;3449;48.728;8.968;2024-03-29T07:48:16;2.10;;;1.67;;
6821;SDS011;3449;48.728;8.968;2024-03-29T07:50:44;1.63;;;1.00;;
6821;SDS011;3449;48.728;8.968;2024-03-29T07:53:12;3.43;;;1.13;;
6821;SDS011;3449;48.728;8.968;2024-03-29T07:55:39;3.10;;;1.20;;
6821;SDS011;3449;48.728;8.968;2024-03-29T07:58:07;0.90;;;0.90;;
6821;SDS011;3449;48.728;8.968;2024-03-29T08:00:35;1.23;;;0.73;;
6821;SDS011;3449;48.728;8.968;2024-03-29T08:03:06;0.90;;;0.70;;
6821;SDS011;3449;48.728;8.968;2024-03-29T08:05:34;1.47;;;0.87;;
6821;SDS011;3449;48.728;8.968;2024-03-29T08:08:01;1.23;;;0.90;;
6821;SDS011;3449;48.728;8.968;2024-03-29T08:10:29;2.10;;;1.10;;
6821;SDS011;3449;48.728;8.968;2024-03-29T08:12:56;1.33;;;1.10;;
6821;SDS011;3449;48.728;8.968;2024-03-29T08:15:23;1.90;;;1.10;;
6821;SDS011;3449;48.728;8.968;2024-03-29T08:17:50;1.57;;;1.40;;
6821;SDS011;3449;48.728;8.968;2024-03-29T08:20:17;3.60;;;1.00;;
6821;SDS011;3449;48.728;8.968;2024-03-29T08:22:45;2.57;;;1.17;;
6821;SDS011;3449;48.728;8.968;2024-03-29T08:25:12;1.93;;;0.90;;
6821;SDS011;3449;48.728;8.968;2024-03-29T08:27:39;1.83;;;0.90;;
6821;SDS011;3449;48.728;8.968;2024-03-29T08:30:07;1.23;;;1.00;;
6821;SDS011;3449;48.728;8.968;2024-03-29T08:32:34;1.33;;;1.00;;
6821;SDS011;3449;48.728;8.968;2024-03-29T08:35:01;2.03;;;1.20;;
6821;SDS011;3449;48.728;8.968;2024-03-29T08:37:28;1.80;;;1.10;;
6821;SDS011;3449;48.728;8.968;2024-03-29T08:39:57;1.87;;;1.27;;
6821;SDS011;3449;48.728;8.968;2024-03-29T08:42:23;1.30;;;1.20;;
6821;SDS011;3449;48.728;8.968;2024-03-29T08:44:50;1.10;;;1.10;;
6821;SDS011;3449;48.728;8.968;2024-03-29T08:47:18;1.40;;;1.30;;
6821;SDS011;3449;48.728;8.968;2024-03-29T08:49:44;1.17;;;1.03;;
6821;SDS011;3449;48.728;8.968;2024-03-29T08:52:10;2.67;;;1.50;;
6821;SDS011;3449;48.728;8.968;2024-03-29T08:54:37;1.30;;;1.20;;
6821;SDS011;3449;48.728;8.968;2024-03-29T08:57:06;2.60;;;1.43;;
6821;SDS011;3449;48.728;8.968;2024-03-29T08:59:32;1.80;;;1.20;;
6821;SDS011;3449;48.728;8.968;2024-03-29T09:02:03;1.93;;;1.70;;
6821;SDS011;3449;48.728;8.968;2024-03-29T09:04:31;1.90;;;1.47;;
6821;SDS011;3449;48.728;8.968;2024-03-29T09:06:59;3.53;;;2.07;;
6821;SDS011;3449;48.728;8.968;2024-03-29T09:09:27;3.07;;;2.10;;
6821;SDS011;3449;48.728;8.968;2024-03-29T09:11:54;2.07;;;1.97;;
6821;SDS011;3449;48.728;8.968;2024-03-29T09:14:22;2.63;;;2.43;;
6821;SDS011;3449;48.728;8.968;2024-03-29T09:16:49;3.83;;;3.53;;
6821;SDS011;3449;48.728;8.968;2024-03-29T09:19:16;3.07;;;2.80;;
6821;SDS011;3449;48.728;8.968;2024-03-29T09:21:42;2.60;;;2.37;;
6821;SDS011;3449;48.728;8.968;2024-03-29T09:24:09;3.30;;;2.40;;
6821;SDS011;3449;48.728;8.968;2024-03-29T09:26:36;1.80;;;1.40;;
6821;SDS011;3449;48.728;8.968;2024-03-29T09:29:05;1.90;;;1.40;;
6821;SDS011;3449;48.728;8.968;2024-03-29T09:31:33;1.50;;;1.40;;
6821;SDS011;3449;48.728;8.968;2024-03-29T09:34:00;1.43;;;1.20;;
6821;SDS011;3449;48.728;8.968;2024-03-29T09:36:27;2.37;;;1.80;;
6821;SDS011;3449;48.728;8.968;2024-03-29T09:38:54;2.03;;;1.73;;
6821;SDS011;3449;48.728;8.968;2024-03-29T09:41:21;2.30;;;1.47;;
6821;SDS011;3449;48.728;8.968;2024-03-29T09:43:52;3.00;;;1.70;;
6821;SDS011;3449;48.728;8.968;2024-03-29T09:46:20;3.60;;;1.67;;
6821;SDS011;3449;48.728;8.968;2024-03-29T09:48:49;3.40;;;2.60;;
6821;SDS011;3449;48.728;8.968;2024-03-29T09:51:18;7.30;;;6.10;;
6821;SDS011;3449;48.728;8.968;2024-03-29T09:53:47;4.07;;;2.27;;
6821;SDS011;3449;48.728;8.968;2024-03-29T09:56:15;1.40;;;1.30;;
6821;SDS011;3449;48.728;8.968;2024-03-29T09:58:43;1.63;;;1.53;;
6821;SDS011;3449;48.728;8.968;2024-03-29T10:01:09;3.27;;;1.80;;
6821;SDS011;3449;48.728;8.968;2024-03-29T10:03:38;1.23;;;1.23;;
6821;SDS011;3449;48.728;8.968;2024-03-29T10:06:08;1.80;;;1.70;;
6821;SDS011;3449;48.728;8.968;2024-03-29T10:08:38;1.80;;;1.20;;
6821;SDS011;3449;48.728;8.968;2024-03-29T10:11:05;2.03;;;1.00;;
6821;SDS011;3449;48.728;8.968;2024-03-29T10:13:32;2.63;;;1.63;;
6821;SDS011;3449;48.728;8.968;2024-03-29T10:15:59;2.77;;;2.17;;
6821;SDS011;3449;48.728;8.968;2024-03-29T10:18:28;2.90;;;1.90;;
6821;SDS011;3449;48.728;8.968;2024-03-29T10:20:59;2.57;;;1.80;;
6821;SDS011;3449;48.728;8.968;2024-03-29T10:23:30;2.97;;;1.50;;
6821;SDS011;3449;48.728;8.968;2024-03-29T10:25:57;1.67;;;1.37;;
6821;SDS011;3449;48.728;8.968;2024-03-29T10:28:27;2.10;;;1.90;;
6821;SDS011;3449;48.728;8.968;2024-03-29T10:30:56;1.83;;;1.40;;
6821;SDS011;3449;48.728;8.968;2024-03-29T10:33:23;2.90;;;1.60;;
6821;SDS011;3449;48.728;8.968;2024-03-29T10:35:53;1.73;;;1.63;;
6821;SDS011;3449;48.728;8.968;2024-03-29T10:38:20;4.73;;;1.90;;
6821;SDS011;3449;48.728;8.968;2024-03-29T10:40:49;3.07;;;1.50;;
6821;SDS011;3449;48.728;8.968;2024-03-29T10:43:17;2.03;;;1.10;;
6821;SDS011;3449;48.728;8.968;2024-03-29T10:45:45;3.10;;;1.40;;
6821;SDS011;3449;48.728;8.968;2024-03-29T10:48:14;2.30;;;1.20;;
6821;SDS011;3449;48.728;8.968;2024-03-29T10:50:42;0.97;;;0.97;;
6821;SDS011;3449;48.728;8.968;2024-03-29T10:53:12;1.10;;;1.00;;
6821;SDS011;3449;48.728;8.968;2024-03-29T10:55:40;1.10;;;1.03;;
6821;SDS011;3449;48.728;8.968;2024-03-29T10:58:11;1.37;;;0.80;;
6821;SDS011;3449;48.728;8.968;2024-03-29T11:00:41;0.83;;;0.80;;
6821;SDS011;3449;48.728;8.968;2024-03-29T11:03:13;9.10;;;4.20;;
6821;SDS011;3449;48.728;8.968;2024-03-29T11:05:44;1.93;;;1.80;;
6821;SDS011;3449;48.728;8.968;2024-03-29T11:08:16;1.67;;;1.17;;
6821;SDS011;3449;48.728;8.968;2024-03-29T11:10:47;3.73;;;1.10;;
6821;SDS011;3449;48.728;8.968;2024-03-29T11:13:19;1.07;;;0.87;;
6821;SDS011;3449;48.728;8.968;2024-03-29T11:15:52;1.20;;;1.10;;
6821;SDS011;3449;48.728;8.968;2024-03-29T11:18:19;4.00;;;1.00;;
6821;SDS011;3449;48.728;8.968;2024-03-29T11:20:49;1.50;;;1.30;;
6821;SDS011;3449;48.728;8.968;2024-03-29T11:23:18;1.23;;;1.13;;
6821;SDS011;3449;48.728;8.968;2024-03-29T11:25:46;2.63;;;1.30;;
6821;SDS011;3449;48.728;8.968;2024-03-29T11:28:14;0.90;;;0.90;;
6821;SDS011;3449;48.728;8.968;2024-03-29T11:30:48;0.77;;;0.70;;
6821;SDS011;3449;48.728;8.968;2024-03-29T11:33:26;1.20;;;1.10;;
6821;SDS011;3449;48.728;8.968;2024-03-29T11:35:57;2.87;;;1.00;;
6821;SDS011;3449;48.728;8.968;2024-03-29T11:38:31;1.37;;;0.90;;
6821;SDS011;3449;48.728;8.968;2024-03-29T11:41:03;20.40;;;1.20;;
6821;SDS011;3449;48.728;8.968;2024-03-29T11:43:31;0.80;;;0.80;;
6821;SDS011;3449;48.728;8.968;2024-03-29T11:46:00;1.10;;;1.00;;
6821;SDS011;3449;48.728;8.968;2024-03-29T11:48:28;2.37;;;1.27;;
6821;SDS011;3449;48.728;8.968;2024-03-29T11:50:57;1.27;;;1.17;;
6821;SDS011;3449;48.728;8.968;2024-03-29T11:53:24;1.03;;;0.93;;
6821;SDS011;3449;48.728;8.968;2024-03-29T11:55:52;1.17;;;0.97;;
6821;SDS011;3449;48.728;8.968;2024-03-29T11:58:20;1.10;;;0.90;;
6821;SDS011;3449;48.728;8.968;2024-03-29T12:00:48;2.60;;;1.63;;
6821;SDS011;3449;48.728;8.968;2024-03-29T12:03:17;1.67;;;1.03;;
6821;SDS011;3449;48.728;8.968;2024-03-29T12:05:45;1.00;;;0.80;;
6821;SDS011;3449;48.728;8.968;2024-03-29T12:08:13;0.80;;;0.60;;
6821;SDS011;3449;48.728;8.968;2024-03-29T12:10:40;0.77;;;0.73;;
6821;SDS011;3449;48.728;8.968;2024-03-29T12:13:08;3.13;;;0.70;;
6821;SDS011;3449;48.728;8.968;2024-03-29T12:15:35;0.70;;;0.70;;
6821;SDS011;3449;48.728;8.968;2024-03-29T12:18:02;0.90;;;0.63;;
6821;SDS011;3449;48.728;8.968;2024-03-29T12:20:32;0.80;;;0.80;;
6821;SDS011;3449;48.728;8.968;2024-03-29T12:23:00;0.90;;;0.90;;
6821;SDS011;3449;48.728;8.968;2024-03-29T12:25:27;0.70;;;0.70;;
6821;SDS011;3449;48.728;8.968;2024-03-29T12:27:54;0.80;;;0.73;;
6821;SDS011;3449;48.728;8.968;2024-03-29T12:30:21;2.60;;;0.70;;
6821;SDS011;3449;48.728;8.968;2024-03-29T12:32:50;1.10;;;0.70;;
6821;SDS011;3449;48.728;8.968;2024-03-29T12:35:27;0.83;;;0.83;;
6821;SDS011;3449;48.728;8.968;2024-03-29T12:37:57;0.90;;;0.60;;
6821;SDS011;3449;48.728;8.968;2024-03-29T12:40:25;0.83;;;0.70;;
6821;SDS011;3449;48.728;8.968;2024-03-29T12:42:54;1.73;;;1.10;;
6821;SDS011;3449;48.728;8.968;2024-03-29T12:45:22;2.20;;;0.90;;
6821;SDS011;3449;48.728;8.968;2024-03-29T12:47:48;1.10;;;0.80;;
6821;SDS011;3449;48.728;8.968;2024-03-29T12:50:24;2.50;;;1.07;;
6821;SDS011;3449;48.728;8.968;2024-03-29T12:52:53;3.20;;;0.97;;
6821;SDS011;3449;48.728;8.968;2024-03-29T12:55:22;2.50;;;0.83;;
6821;SDS011;3449;48.728;8.968;2024-03-29T12:57:50;1.43;;;1.00;;
6821;SDS011;3449;48.728;8.968;2024-03-29T13:00:18;6.93;;;1.07;;
6821;SDS011;3449;48.728;8.968;2024-03-29T13:02:45;1.27;;;0.97;;
6821;SDS011;3449;48.728;8.968;2024-03-29T13:05:12;0.77;;;0.77;;
6821;SDS011;3449;48.728;8.968;2024-03-29T13:07:39;1.27;;;1.00;;
6821;SDS011;3449;48.728;8.968;2024-03-29T13:10:06;1.00;;;0.90;;
6821;SDS011;3449;48.728;8.968;2024-03-29T13:12:39;0.50;;;0.50;;
6821;SDS011;3449;48.728;8.968;2024-03-29T13:15:14;0.63;;;0.60;;
6821;SDS011;3449;48.728;8.968;2024-03-29T13:17:43;2.83;;;0.80;;
6821;SDS011;3449;48.728;8.968;2024-03-29T13:20:11;0.70;;;0.60;;
6821;SDS011;3449;48.728;8.968;2024-03-29T13:22:38;1.03;;;0.80;;
6821;SDS011;3449;48.728;8.968;2024-03-29T13:25:07;0.77;;;0.77;;
6821;SDS011;3449;48.728;8.968;2024-03-29T13:27:35;0.57;;;0.50;;
6821;SDS011;3449;48.728;8.968;2024-03-29T13:30:04;1.00;;;0.60;;
6821;SDS011;3449;48.728;8.968;2024-03-29T13:32:34;1.53;;;0.60;;
6821;SDS011;3449;48.728;8.968;2024-03-29T13:35:01;1.13;;;0.50;;
6821;SDS011;3449;48.728;8.968;2024-03-29T13:37:30;0.80;;;0.67;;
6821;SDS011;3449;48.728;8.968;2024-03-29T13:39:57;1.27;;;0.57;;
6821;SDS011;3449;48.728;8.968;2024-03-29T13:42:24;3.33;;;0.83;;
6821;SDS011;3449;48.728;8.968;2024-03-29T13:44:51;1.90;;;0.50;;
6821;SDS011;3449;48.728;8.968;2024-03-29T13:47:20;2.20;;;0.50;;
6821;SDS011;3449;48.728;8.968;2024-03-29T13:49:47;0.80;;;0.60;;
6821;SDS011;3449;48.728;8.968;2024-03-29T13:52:17;2.93;;;1.20;;
6821;SDS011;3449;48.728;8.968;2024-03-29T13:54:44;1.53;;;0.40;;
6821;SDS011;3449;48.728;8.968;2024-03-29T13:57:12;1.33;;;0.50;;
6821;SDS011;3449;48.728;8.968;2024-03-29T13:59:39;0.60;;;0.50;;
6821;SDS011;3449;48.728;8.968;2024-03-29T14:02:08;1.30;;;0.57;;
6821;SDS011;3449;48.728;8.968;2024-03-29T14:04:36;3.27;;;0.53;;
6821;SDS011;3449;48.728;8.968;2024-03-29T14:07:03;1.00;;;0.60;;
6821;SDS011;3449;48.728;8.968;2024-03-29T14:09:32;0.80;;;0.80;;
6821;SDS011;3449;48.728;8.968;2024-03-29T14:12:00;0.50;;;0.43;;
6821;SDS011;3449;48.728;8.968;2024-03-29T14:14:28;0.50;;;0.40;;
6821;SDS011;3449;48.728;8.968;2024-03-29T14:16:55;1.03;;;0.70;;
6821;SDS011;3449;48.728;8.968;2024-03-29T14:19:22;0.80;;;0.80;;
6821;SDS011;3449;48.728;8.968;2024-03-29T14:21:50;3.10;;;1.30;;
6821;SDS011;3449;48.728;8.968;2024-03-29T14:24:17;2.40;;;0.60;;
6821;SDS011;3449;48.728;8.968;2024-03-29T14:26:44;0.63;;;0.63;;
6821;SDS011;3449;48.728;8.968;2024-03-29T14:29:10;0.77;;;0.77;;
6821;SDS011;3449;48.728;8.968;2024-03-29T14:31:40;0.60;;;0.50;;
6821;SDS011;3449;48.728;8.968;2024-03-29T14:34:09;0.60;;;0.60;;
6821;SDS011;3449;48.728;8.968;2024-03-29T14:36:36;0.80;;;0.70;;
6821;SDS011;3449;48.728;8.968;2024-03-29T14:39:04;0.80;;;0.80;;
6821;SDS011;3449;48.728;8.968;2024-03-29T14:41:31;1.20;;;1.10;;
6821;SDS011;3449;48.728;8.968;2024-03-29T14:43:59;1.17;;;0.60;;
6821;SDS011;3449;48.728;8.968;2024-03-29T14:46:25;2.30;;;0.70;;
6821;SDS011;3449;48.728;8.968;2024-03-29T14:48:52;0.53;;;0.50;;
6821;SDS011;3449;48.728;8.968;2024-03-29T14:51:19;1.40;;;0.70;;
6821;SDS011;3449;48.728;8.968;2024-03-29T14:53:46;0.90;;;0.67;;
6821;SDS011;3449;48.728;8.968;2024-03-29T14:56:16;4.73;;;0.70;;
6821;SDS011;3449;48.728;8.968;2024-03-29T14:58:43;0.60;;;0.60;;
6821;SDS011;3449;48.728;8.968;2024-03-29T15:01:10;0.80;;;0.80;;
6821;SDS011;3449;48.728;8.968;2024-03-29T15:03:37;0.83;;;0.83;;
6821;SDS011;3449;48.728;8.968;2024-03-29T15:06:04;1.07;;;0.73;;
6821;SDS011;3449;48.728;8.968;2024-03-29T15:08:31;0.63;;;0.57;;
6821;SDS011;3449;48.728;8.968;2024-03-29T15:10:58;1.37;;;1.07;;
6821;SDS011;3449;48.728;8.968;2024-03-29T15:13:27;3.43;;;0.60;;
6821;SDS011;3449;48.728;8.968;2024-03-29T15:15:55;0.60;;;0.50;;
6821;SDS011;3449;48.728;8.968;2024-03-29T15:18:22;0.50;;;0.50;;